Main page
METAR-TAF:

METAR-TAF

Airports :

Huesca–Pirineos Airport

Huesca, Spain

latitude: 42-04-32N, longitude: 0-18-58W, elevation: 539 m

Current weather observation

The report was made 41 minutes ago, at 05:00 UTC
Wind 3 kt from the North/Northwest, varying between West/Northwest and North
Temperature 19°C
Humidity 73%
Pressure 1021 hPa
Visibility 10 km or more

METAR: LEHC 240500Z AUTO 33003KT 290V360 9999 NCD 19/14 Q1021

Time: 07:41 (05:41 UTC)

Forecast

The report was made 3 hours and 41 minutes ago, at 02:00 UTC
Forecast valid from 24 at 03 UTC to 25 at 03 UTC
Wind 8 kt from the East
Visibility 10 km or more
Few clouds at a height of 4000 ft
Becoming
from 24 at 06 UTC to 24 at 08 UTC
Wind 10 kt from the Southeast
Becoming
from 24 at 11 UTC to 24 at 13 UTC
Wind 5 kt from the Southwest
Becoming
from 24 at 19 UTC to 24 at 21 UTC
Wind 12 kt from the East

TAF: LEHC 240200Z 2403/2503 08008KT 9999 FEW040 TX31/2414Z TN16/2405Z BECMG 2406/2408 13010KT BECMG 2411/2413 22005KT BECMG 2419/2421 10012KT

Weather observations and forecasts of more than 4000 airports (METAR and TAF reports).

The available stations are represented by yellow and red dots on the map.

Hover mouse over dot to see the name of the station.

Then click to see weather observations and forecasts.

To change the map : click on the green buttons with a black cross to zoom in, on the green button with a dash to zoom out, or on the green arrows for adjacent maps.


METAR-TAF: